UAL482 SBGR-SCEL
Flight info
| Callsign | UAL482 |
|---|---|
| Flight time | 1h 32m |
| Altitude | 34000 |
| Route | UBSOD UZ38 ARTUT UM400 BIVUB/N0491F360 UM400 CBA UZ105 UMKAL UMKAL7C |
| Aircraft | B77W/H-SDE1E2E3FGHIJ2J3J4J5M1RWXY/LB1D1 |
Departure
| Time | 2026-05-05 21:47 |
|---|---|
| Airport | São Paulo/Guarulhos–Governor André Franco Montoro International Airport (SBGR) |
Arrival
| Time | 2026-05-05 23:19 |
|---|---|
| Airport | Comodoro Arturo Merino Benítez International Airport (SCEL) |
| Time | Latitude | Longitude | Altitude | Speed | Heading |
|---|---|---|---|---|---|
| 2026-05-05 21:27 | -23.42669 | -46.47284 | 2465 ft | 0 kts | 253° |
| 2026-05-05 21:38 | -23.42665 | -46.47271 | 2465 ft | 2 kts | 245° |
| 2026-05-05 21:38 | -23.42658 | -46.47255 | 2465 ft | 2 kts | 239° |
| 2026-05-05 21:38 | -23.42648 | -46.47240 | 2463 ft | 2 kts | 226° |
| 2026-05-05 21:38 | -23.42636 | -46.47228 | 2467 ft | 2 kts | 209° |
| 2026-05-05 21:39 | -23.42621 | -46.47222 | 2467 ft | 2 kts | 190° |
| 2026-05-05 21:39 | -23.42605 | -46.47220 | 2465 ft | 2 kts | 174° |
| 2026-05-05 21:39 | -23.42590 | -46.47223 | 2467 ft | 1 kts | 166° |
| 2026-05-05 21:39 | -23.42586 | -46.47224 | 2466 ft | 0 kts | 165° |
| 2026-05-05 21:41 | -23.42588 | -46.47223 | 2466 ft | 2 kts | 163° |
| 2026-05-05 21:42 | -23.42647 | -46.47205 | 2465 ft | 14 kts | 164° |
| 2026-05-05 21:42 | -23.42737 | -46.47173 | 2467 ft | 14 kts | 150° |
| 2026-05-05 21:42 | -23.42820 | -46.47126 | 2465 ft | 14 kts | 162° |
| 2026-05-05 21:42 | -23.42910 | -46.47122 | 2459 ft | 14 kts | 214° |
| 2026-05-05 21:43 | -23.42952 | -46.47213 | 2464 ft | 14 kts | 253° |
| 2026-05-05 21:43 | -23.42978 | -46.47312 | 2459 ft | 14 kts | 253° |
| 2026-05-05 21:43 | -23.43005 | -46.47411 | 2462 ft | 14 kts | 253° |
| 2026-05-05 21:43 | -23.43032 | -46.47511 | 2462 ft | 14 kts | 253° |
| 2026-05-05 21:44 | -23.43067 | -46.47642 | 2460 ft | 22 kts | 253° |
| 2026-05-05 21:44 | -23.43114 | -46.47815 | 2465 ft | 24 kts | 253° |
| 2026-05-05 21:44 | -23.43162 | -46.47990 | 2463 ft | 24 kts | 253° |
| 2026-05-05 21:44 | -23.43209 | -46.48165 | 2467 ft | 24 kts | 254° |
| 2026-05-05 21:45 | -23.43253 | -46.48309 | 2467 ft | 17 kts | 237° |
| 2026-05-05 21:45 | -23.43354 | -46.48354 | 2462 ft | 17 kts | 160° |
| 2026-05-05 21:45 | -23.43414 | -46.48287 | 2464 ft | 12 kts | 77° |
| 2026-05-05 21:45 | -23.43405 | -46.48244 | 2461 ft | 0 kts | 73° |
| 2026-05-05 21:46 | -23.43400 | -46.48223 | 2461 ft | 14 kts | 73° |
| 2026-05-05 21:46 | -23.43305 | -46.47874 | 2463 ft | 86 kts | 73° |
| 2026-05-05 21:46 | -23.43066 | -46.46994 | 2464 ft | 153 kts | 73° |
| 2026-05-05 21:46 | -23.42727 | -46.45717 | 2636 ft | 186 kts | 74° |
| 2026-05-05 21:47 | -23.42365 | -46.44398 | 3406 ft | 182 kts | 74° |
| 2026-05-05 21:47 | -23.41984 | -46.43081 | 4046 ft | 185 kts | 73° |
| 2026-05-05 21:47 | -23.41577 | -46.41691 | 4406 ft | 204 kts | 73° |
| 2026-05-05 21:47 | -23.41113 | -46.40114 | 4591 ft | 233 kts | 73° |
| 2026-05-05 21:48 | -23.40586 | -46.38333 | 4905 ft | 259 kts | 73° |
| 2026-05-05 21:48 | -23.40118 | -46.36408 | 5494 ft | 266 kts | 88° |
| 2026-05-05 21:48 | -23.40472 | -46.34437 | 6171 ft | 269 kts | 111° |
| 2026-05-05 21:48 | -23.41152 | -46.32532 | 6860 ft | 276 kts | 110° |
| 2026-05-05 21:49 | -23.41808 | -46.30561 | 7718 ft | 277 kts | 110° |
| 2026-05-05 21:49 | -23.42458 | -46.28581 | 8507 ft | 280 kts | 109° |
| 2026-05-05 21:49 | -23.43331 | -46.26693 | 9027 ft | 282 kts | 130° |
| 2026-05-05 21:49 | -23.44905 | -46.25412 | 9336 ft | 288 kts | 160° |
| 2026-05-05 21:50 | -23.46891 | -46.25070 | 10088 ft | 292 kts | 182° |
| 2026-05-05 21:50 | -23.48919 | -46.25406 | 10672 ft | 300 kts | 190° |
| 2026-05-05 21:50 | -23.51056 | -46.25864 | 10902 ft | 327 kts | 190° |
| 2026-05-05 21:50 | -23.53334 | -46.26487 | 11045 ft | 350 kts | 202° |
| 2026-05-05 21:51 | -23.55366 | -46.28033 | 11289 ft | 374 kts | 229° |
| 2026-05-05 21:51 | -23.56623 | -46.30547 | 11921 ft | 385 kts | 254° |
| 2026-05-05 21:51 | -23.57193 | -46.33399 | 12645 ft | 389 kts | 259° |
| 2026-05-05 21:51 | -23.57724 | -46.36315 | 13536 ft | 395 kts | 258° |
| 2026-05-05 21:52 | -23.58842 | -46.42232 | 15315 ft | 401 kts | 258° |
| 2026-05-05 21:52 | -23.59424 | -46.45213 | 16068 ft | 405 kts | 257° |
| 2026-05-05 21:52 | -23.60021 | -46.48234 | 16259 ft | 409 kts | 257° |
| 2026-05-05 21:53 | -23.60625 | -46.51285 | 16259 ft | 410 kts | 257° |
| 2026-05-05 21:53 | -23.61175 | -46.54351 | 16560 ft | 414 kts | 260° |
| 2026-05-05 21:53 | -23.61612 | -46.57470 | 17387 ft | 417 kts | 261° |
| 2026-05-05 21:53 | -23.62037 | -46.60561 | 18231 ft | 419 kts | 260° |
| 2026-05-05 21:54 | -23.62558 | -46.63703 | 18928 ft | 423 kts | 255° |
| 2026-05-05 21:54 | -23.63511 | -46.66743 | 19587 ft | 426 kts | 245° |
| 2026-05-05 21:54 | -23.64870 | -46.69628 | 20290 ft | 428 kts | 238° |
| 2026-05-05 21:54 | -23.66505 | -46.72365 | 21006 ft | 431 kts | 236° |
| 2026-05-05 21:55 | -23.68158 | -46.75102 | 21697 ft | 434 kts | 236° |
| 2026-05-05 21:55 | -23.69825 | -46.77872 | 22375 ft | 438 kts | 237° |
| 2026-05-05 21:55 | -23.71502 | -46.80674 | 23040 ft | 442 kts | 237° |
| 2026-05-05 21:55 | -23.73186 | -46.83498 | 23700 ft | 445 kts | 237° |
| 2026-05-05 21:56 | -23.74877 | -46.86345 | 24268 ft | 448 kts | 237° |
| 2026-05-05 21:56 | -23.76576 | -46.89211 | 24839 ft | 450 kts | 237° |
| 2026-05-05 21:56 | -23.78275 | -46.92083 | 25473 ft | 451 kts | 237° |
| 2026-05-05 21:56 | -23.79982 | -46.94972 | 26104 ft | 453 kts | 237° |
| 2026-05-05 21:57 | -23.81669 | -46.97828 | 26685 ft | 455 kts | 237° |
| 2026-05-05 21:57 | -23.83389 | -47.00744 | 27267 ft | 457 kts | 237° |
| 2026-05-05 21:57 | -23.85117 | -47.03674 | 27817 ft | 460 kts | 237° |
| 2026-05-05 21:57 | -23.86856 | -47.06624 | 28342 ft | 462 kts | 237° |
| 2026-05-05 21:58 | -23.88600 | -47.09585 | 28861 ft | 464 kts | 237° |
| 2026-05-05 21:58 | -23.90355 | -47.12565 | 29357 ft | 466 kts | 237° |
| 2026-05-05 21:58 | -23.92112 | -47.15550 | 29802 ft | 468 kts | 237° |
| 2026-05-05 21:58 | -23.93881 | -47.18557 | 30248 ft | 470 kts | 237° |
| 2026-05-05 21:59 | -23.95647 | -47.21564 | 30676 ft | 470 kts | 237° |
| 2026-05-05 21:59 | -23.97406 | -47.24559 | 31292 ft | 465 kts | 236° |
| 2026-05-05 21:59 | -23.99121 | -47.27480 | 31914 ft | 460 kts | 237° |
| 2026-05-05 21:59 | -24.00844 | -47.30416 | 32467 ft | 457 kts | 237° |
| 2026-05-05 22:00 | -24.02558 | -47.33340 | 32960 ft | 455 kts | 236° |
| 2026-05-05 22:00 | -24.04263 | -47.36251 | 33450 ft | 452 kts | 236° |
| 2026-05-05 22:00 | -24.05959 | -47.39148 | 33944 ft | 450 kts | 236° |
| 2026-05-05 22:00 | -24.07629 | -47.42000 | 34210 ft | 452 kts | 236° |
| 2026-05-05 22:01 | -24.09337 | -47.44918 | 34206 ft | 454 kts | 236° |
| 2026-05-05 22:01 | -24.12726 | -47.50715 | 34196 ft | 448 kts | 237° |
| 2026-05-05 22:02 | -24.16098 | -47.56491 | 34631 ft | 448 kts | 236° |
| 2026-05-05 22:02 | -24.17769 | -47.59355 | 35152 ft | 443 kts | 236° |
| 2026-05-05 22:02 | -24.19420 | -47.62190 | 35586 ft | 440 kts | 236° |
| 2026-05-05 22:02 | -24.21061 | -47.65006 | 35997 ft | 437 kts | 236° |
| 2026-05-05 22:03 | -24.22688 | -47.67804 | 36192 ft | 434 kts | 236° |
| 2026-05-05 22:03 | -24.25946 | -47.73400 | 36167 ft | 436 kts | 236° |
| 2026-05-05 22:04 | -24.29192 | -47.78984 | 36178 ft | 437 kts | 236° |
| 2026-05-05 22:04 | -24.32457 | -47.84606 | 36172 ft | 437 kts | 236° |
| 2026-05-05 22:05 | -24.35714 | -47.90221 | 36164 ft | 436 kts | 236° |
| 2026-05-05 22:05 | -24.38965 | -47.95834 | 36167 ft | 435 kts | 236° |
| 2026-05-05 22:06 | -24.42204 | -48.01434 | 36159 ft | 434 kts | 236° |
| 2026-05-05 22:06 | -24.45432 | -48.07020 | 36167 ft | 433 kts | 236° |
| 2026-05-05 22:07 | -24.48656 | -48.12607 | 36168 ft | 432 kts | 236° |
| 2026-05-05 22:07 | -24.51854 | -48.18155 | 36166 ft | 432 kts | 236° |
| 2026-05-05 22:08 | -24.55069 | -48.23737 | 36166 ft | 432 kts | 236° |
| 2026-05-05 22:08 | -24.58275 | -48.29313 | 36168 ft | 432 kts | 236° |
| 2026-05-05 22:09 | -24.61482 | -48.34895 | 36185 ft | 432 kts | 236° |
| 2026-05-05 22:09 | -24.64699 | -48.40497 | 36187 ft | 434 kts | 236° |
| 2026-05-05 22:10 | -24.67916 | -48.46111 | 36182 ft | 433 kts | 236° |
| 2026-05-05 22:10 | -24.71109 | -48.51690 | 36176 ft | 432 kts | 236° |
| 2026-05-05 22:11 | -24.74305 | -48.57279 | 36190 ft | 430 kts | 236° |
| 2026-05-05 22:11 | -24.77483 | -48.62845 | 36186 ft | 430 kts | 236° |
| 2026-05-05 22:12 | -24.80663 | -48.68421 | 36179 ft | 430 kts | 236° |
| 2026-05-05 22:12 | -24.83847 | -48.74007 | 36182 ft | 430 kts | 236° |
| 2026-05-05 22:13 | -24.87031 | -48.79600 | 36184 ft | 430 kts | 236° |
| 2026-05-05 22:13 | -24.90190 | -48.85157 | 36187 ft | 431 kts | 236° |
| 2026-05-05 22:14 | -24.93368 | -48.90755 | 36187 ft | 431 kts | 236° |
| 2026-05-05 22:14 | -24.96020 | -48.95428 | 36191 ft | 432 kts | 236° |
| 2026-05-05 22:15 | -24.99203 | -49.01047 | 36189 ft | 432 kts | 236° |
| 2026-05-05 22:15 | -25.02382 | -49.06663 | 36190 ft | 432 kts | 236° |
| 2026-05-05 22:16 | -25.05563 | -49.12291 | 36185 ft | 431 kts | 236° |
| 2026-05-05 22:16 | -25.08732 | -49.17906 | 36195 ft | 430 kts | 236° |
| 2026-05-05 22:17 | -25.11865 | -49.23468 | 36196 ft | 430 kts | 237° |
| 2026-05-05 22:17 | -25.15020 | -49.29063 | 36198 ft | 429 kts | 237° |
| 2026-05-05 22:18 | -25.18171 | -49.34663 | 36197 ft | 428 kts | 236° |
| 2026-05-05 22:18 | -25.21311 | -49.40249 | 36207 ft | 427 kts | 237° |
| 2026-05-05 22:19 | -25.24446 | -49.45835 | 36199 ft | 427 kts | 237° |
| 2026-05-05 22:19 | -25.27574 | -49.51415 | 36193 ft | 427 kts | 237° |
| 2026-05-05 22:20 | -25.30677 | -49.56955 | 36193 ft | 427 kts | 237° |
| 2026-05-05 22:20 | -25.33802 | -49.62542 | 36200 ft | 427 kts | 237° |
| 2026-05-05 22:21 | -25.36928 | -49.68136 | 36193 ft | 427 kts | 237° |
| 2026-05-05 22:21 | -25.40038 | -49.73712 | 36203 ft | 426 kts | 237° |
| 2026-05-05 22:22 | -25.43145 | -49.79289 | 36196 ft | 425 kts | 237° |
| 2026-05-05 22:22 | -25.46241 | -49.84851 | 36200 ft | 424 kts | 237° |
| 2026-05-05 22:23 | -25.49334 | -49.90415 | 36196 ft | 423 kts | 237° |
| 2026-05-05 22:23 | -25.52395 | -49.95927 | 36201 ft | 423 kts | 237° |
| 2026-05-05 22:24 | -25.55476 | -50.01480 | 36193 ft | 423 kts | 237° |
| 2026-05-05 22:24 | -25.58552 | -50.07033 | 36195 ft | 422 kts | 237° |
| 2026-05-05 22:25 | -25.61616 | -50.12570 | 36204 ft | 422 kts | 237° |
| 2026-05-05 22:25 | -25.64679 | -50.18114 | 36193 ft | 423 kts | 237° |
| 2026-05-05 22:26 | -25.67746 | -50.23669 | 36196 ft | 422 kts | 237° |
| 2026-05-05 22:26 | -25.70792 | -50.29193 | 36193 ft | 422 kts | 237° |
| 2026-05-05 22:27 | -25.73854 | -50.34755 | 36186 ft | 422 kts | 237° |
| 2026-05-05 22:27 | -25.76912 | -50.40316 | 36185 ft | 421 kts | 237° |
| 2026-05-05 22:28 | -25.79962 | -50.45867 | 36194 ft | 421 kts | 237° |
| 2026-05-05 22:28 | -25.83009 | -50.51420 | 36186 ft | 421 kts | 237° |
| 2026-05-05 22:29 | -25.86029 | -50.56931 | 36187 ft | 420 kts | 237° |
| 2026-05-05 22:29 | -25.89065 | -50.62477 | 36191 ft | 420 kts | 237° |
| 2026-05-05 22:30 | -25.92098 | -50.68024 | 36187 ft | 420 kts | 238° |
| 2026-05-05 22:30 | -25.95133 | -50.73582 | 36192 ft | 420 kts | 238° |
| 2026-05-05 22:31 | -25.98138 | -50.79093 | 36195 ft | 420 kts | 238° |
| 2026-05-05 22:31 | -26.01165 | -50.84649 | 36191 ft | 420 kts | 238° |
| 2026-05-05 22:32 | -26.04191 | -50.90212 | 36197 ft | 420 kts | 238° |
| 2026-05-05 22:32 | -26.07263 | -50.95738 | 36188 ft | 420 kts | 238° |
| 2026-05-05 22:33 | -26.10226 | -51.01249 | 36192 ft | 420 kts | 238° |
| 2026-05-05 22:33 | -26.13195 | -51.06776 | 36199 ft | 420 kts | 238° |
| 2026-05-05 22:34 | -26.16204 | -51.12353 | 36199 ft | 420 kts | 238° |
| 2026-05-05 22:34 | -26.19198 | -51.17898 | 36198 ft | 420 kts | 238° |
| 2026-05-05 22:35 | -26.22209 | -51.23475 | 36196 ft | 419 kts | 238° |
| 2026-05-05 22:35 | -26.25213 | -51.29041 | 36197 ft | 419 kts | 238° |
| 2026-05-05 22:36 | -26.28194 | -51.34574 | 36196 ft | 419 kts | 238° |
| 2026-05-05 22:36 | -26.31216 | -51.40187 | 36199 ft | 418 kts | 238° |
| 2026-05-05 22:37 | -26.34186 | -51.45713 | 36197 ft | 418 kts | 238° |
| 2026-05-05 22:37 | -26.37169 | -51.51270 | 36212 ft | 418 kts | 238° |
| 2026-05-05 22:38 | -26.40156 | -51.56841 | 36204 ft | 418 kts | 238° |
| 2026-05-05 22:38 | -26.42986 | -51.62127 | 36196 ft | 417 kts | 239° |
| 2026-05-05 22:39 | -26.45953 | -51.67676 | 36201 ft | 417 kts | 239° |
| 2026-05-05 22:39 | -26.48930 | -51.73249 | 36204 ft | 417 kts | 239° |
| 2026-05-05 22:40 | -26.51901 | -51.78819 | 36190 ft | 417 kts | 239° |
| 2026-05-05 22:40 | -26.54867 | -51.84385 | 36194 ft | 416 kts | 239° |
| 2026-05-05 22:41 | -26.57826 | -51.89944 | 36195 ft | 416 kts | 239° |
| 2026-05-05 22:41 | -26.60768 | -51.95480 | 36196 ft | 417 kts | 239° |
| 2026-05-05 22:42 | -26.63725 | -52.01050 | 36189 ft | 417 kts | 239° |
| 2026-05-05 22:42 | -26.77203 | -52.26525 | 36210 ft | 415 kts | 239° |
| 2026-05-05 22:43 | -27.00605 | -52.71104 | 36161 ft | 415 kts | 240° |
| 2026-05-05 22:43 | -27.23809 | -53.15775 | 36135 ft | 415 kts | 240° |
| 2026-05-05 22:44 | -27.46992 | -53.60868 | 36160 ft | 416 kts | 240° |
| 2026-05-05 22:44 | -27.69963 | -54.06025 | 36112 ft | 414 kts | 240° |
| 2026-05-05 22:45 | -27.92696 | -54.51171 | 36046 ft | 410 kts | 241° |
| 2026-05-05 22:45 | -28.15005 | -54.95959 | 36080 ft | 407 kts | 242° |
| 2026-05-05 22:46 | -28.37063 | -55.40721 | 36006 ft | 406 kts | 242° |
| 2026-05-05 22:46 | -28.58966 | -55.85650 | 35999 ft | 406 kts | 242° |
| 2026-05-05 22:47 | -28.78910 | -56.31208 | 36064 ft | 402 kts | 248° |
| 2026-05-05 22:47 | -28.95783 | -56.78617 | 35972 ft | 403 kts | 248° |
| 2026-05-05 22:48 | -29.12462 | -57.26179 | 35985 ft | 403 kts | 249° |
| 2026-05-05 22:48 | -29.29195 | -57.73650 | 35942 ft | 405 kts | 248° |
| 2026-05-05 22:49 | -29.46249 | -58.20914 | 35942 ft | 404 kts | 251° |
| 2026-05-05 22:49 | -29.61499 | -58.68679 | 35923 ft | 405 kts | 251° |
| 2026-05-05 22:50 | -29.77309 | -59.17155 | 35930 ft | 404 kts | 251° |
| 2026-05-05 22:50 | -29.93173 | -59.65571 | 35931 ft | 404 kts | 252° |
| 2026-05-05 22:51 | -30.08833 | -60.14067 | 35896 ft | 403 kts | 252° |
| 2026-05-05 22:51 | -30.24312 | -60.62693 | 35915 ft | 402 kts | 253° |
| 2026-05-05 22:52 | -30.39569 | -61.11345 | 35879 ft | 401 kts | 253° |
| 2026-05-05 22:52 | -30.54639 | -61.60004 | 35873 ft | 400 kts | 254° |
| 2026-05-05 22:53 | -30.69419 | -62.08542 | 35879 ft | 400 kts | 254° |
| 2026-05-05 22:53 | -30.84110 | -62.57484 | 35890 ft | 401 kts | 255° |
| 2026-05-05 22:54 | -30.98666 | -63.06613 | 35891 ft | 400 kts | 256° |
| 2026-05-05 22:54 | -31.12866 | -63.55525 | 35886 ft | 401 kts | 256° |
| 2026-05-05 22:55 | -31.26842 | -64.04581 | 35916 ft | 401 kts | 257° |
| 2026-05-05 22:55 | -31.42815 | -64.52943 | 35987 ft | 405 kts | 254° |
| 2026-05-05 22:56 | -31.59375 | -65.00381 | 36072 ft | 404 kts | 255° |
| 2026-05-05 22:56 | -31.67638 | -65.24346 | 35818 ft | 405 kts | 255° |
| 2026-05-05 22:56 | -31.75931 | -65.48469 | 35871 ft | 405 kts | 255° |
| 2026-05-05 22:57 | -31.92545 | -65.97339 | 35873 ft | 405 kts | 256° |
| 2026-05-05 22:57 | -32.06233 | -66.38535 | 35860 ft | 406 kts | 256° |
| 2026-05-05 22:58 | -32.19026 | -66.87502 | 35862 ft | 403 kts | 261° |
| 2026-05-05 22:58 | -32.31100 | -67.39089 | 35847 ft | 409 kts | 261° |
| 2026-05-05 22:59 | -32.43045 | -67.91197 | 35851 ft | 411 kts | 261° |
| 2026-05-05 22:59 | -32.54782 | -68.43514 | 35859 ft | 410 kts | 262° |
| 2026-05-05 23:00 | -32.71836 | -69.21953 | 35696 ft | 411 kts | 262° |
| 2026-05-05 23:00 | -32.77413 | -69.48194 | 35966 ft | 406 kts | 262° |
| 2026-05-05 23:00 | -32.78746 | -69.54410 | 36137 ft | 410 kts | 262° |
| 2026-05-05 23:01 | -32.80131 | -69.60905 | 36074 ft | 397 kts | 262° |
| 2026-05-05 23:01 | -32.80808 | -69.64108 | 35322 ft | 405 kts | 262° |
| 2026-05-05 23:01 | -32.81494 | -69.67395 | 34368 ft | 412 kts | 262° |
| 2026-05-05 23:02 | -32.82188 | -69.70722 | 33218 ft | 416 kts | 262° |
| 2026-05-05 23:02 | -32.82889 | -69.74063 | 32169 ft | 415 kts | 261° |
| 2026-05-05 23:02 | -32.83590 | -69.77392 | 31250 ft | 415 kts | 261° |
| 2026-05-05 23:02 | -32.84288 | -69.80706 | 30502 ft | 412 kts | 262° |
| 2026-05-05 23:03 | -32.84968 | -69.83955 | 29667 ft | 409 kts | 262° |
| 2026-05-05 23:03 | -32.85649 | -69.87225 | 28850 ft | 405 kts | 262° |
| 2026-05-05 23:03 | -32.86316 | -69.90447 | 28064 ft | 399 kts | 262° |
| 2026-05-05 23:03 | -32.86978 | -69.93644 | 27236 ft | 397 kts | 262° |
| 2026-05-05 23:04 | -32.87640 | -69.96827 | 26449 ft | 395 kts | 262° |
| 2026-05-05 23:04 | -32.88192 | -69.99998 | 25561 ft | 389 kts | 268° |
| 2026-05-05 23:04 | -32.88114 | -70.03165 | 24767 ft | 377 kts | 281° |
| 2026-05-05 23:04 | -32.87751 | -70.06263 | 24025 ft | 378 kts | 279° |
| 2026-05-05 23:05 | -32.87444 | -70.09355 | 23254 ft | 377 kts | 279° |
| 2026-05-05 23:05 | -32.87162 | -70.12442 | 22530 ft | 374 kts | 279° |
| 2026-05-05 23:05 | -32.86889 | -70.15512 | 21869 ft | 372 kts | 279° |
| 2026-05-05 23:05 | -32.86618 | -70.18525 | 21239 ft | 370 kts | 278° |
| 2026-05-05 23:06 | -32.86337 | -70.21566 | 20540 ft | 371 kts | 279° |
| 2026-05-05 23:06 | -32.86061 | -70.24611 | 19935 ft | 367 kts | 279° |
| 2026-05-05 23:06 | -32.85791 | -70.27617 | 19332 ft | 365 kts | 279° |
| 2026-05-05 23:06 | -32.85514 | -70.30615 | 18716 ft | 363 kts | 280° |
| 2026-05-05 23:07 | -32.85238 | -70.33598 | 18086 ft | 362 kts | 279° |
| 2026-05-05 23:07 | -32.84958 | -70.36584 | 17359 ft | 364 kts | 280° |
| 2026-05-05 23:07 | -32.84679 | -70.39585 | 16635 ft | 364 kts | 280° |
| 2026-05-05 23:07 | -32.84410 | -70.42568 | 16081 ft | 363 kts | 280° |
| 2026-05-05 23:08 | -32.84117 | -70.45580 | 15411 ft | 369 kts | 280° |
| 2026-05-05 23:08 | -32.83824 | -70.48614 | 14745 ft | 370 kts | 280° |
| 2026-05-05 23:08 | -32.83537 | -70.51663 | 14065 ft | 372 kts | 280° |
| 2026-05-05 23:08 | -32.83254 | -70.54705 | 13523 ft | 367 kts | 280° |
| 2026-05-05 23:09 | -32.82976 | -70.57673 | 13008 ft | 363 kts | 280° |
| 2026-05-05 23:09 | -32.82693 | -70.60668 | 12486 ft | 355 kts | 280° |
| 2026-05-05 23:09 | -32.82431 | -70.63461 | 11988 ft | 326 kts | 281° |
| 2026-05-05 23:09 | -32.82193 | -70.66007 | 11560 ft | 302 kts | 281° |
| 2026-05-05 23:10 | -32.82146 | -70.68423 | 11148 ft | 289 kts | 265° |
| 2026-05-05 23:10 | -32.82853 | -70.70695 | 10868 ft | 297 kts | 247° |
| 2026-05-05 23:10 | -32.84118 | -70.72656 | 10567 ft | 302 kts | 231° |
| 2026-05-05 23:10 | -32.85668 | -70.74361 | 10275 ft | 306 kts | 227° |
| 2026-05-05 23:11 | -32.87262 | -70.76041 | 9970 ft | 305 kts | 227° |
| 2026-05-05 23:11 | -32.88835 | -70.77735 | 9609 ft | 304 kts | 227° |
| 2026-05-05 23:11 | -32.90373 | -70.79417 | 9356 ft | 295 kts | 227° |
| 2026-05-05 23:11 | -32.92040 | -70.80742 | 9011 ft | 295 kts | 201° |
| 2026-05-05 23:12 | -32.94070 | -70.81059 | 8703 ft | 294 kts | 179° |
| 2026-05-05 23:12 | -32.96119 | -70.80912 | 8438 ft | 296 kts | 178° |
| 2026-05-05 23:12 | -32.98185 | -70.80788 | 8158 ft | 298 kts | 178° |
| 2026-05-05 23:12 | -33.00260 | -70.80679 | 7856 ft | 299 kts | 178° |
| 2026-05-05 23:13 | -33.02346 | -70.80570 | 7522 ft | 299 kts | 178° |
| 2026-05-05 23:13 | -33.04420 | -70.80458 | 7225 ft | 297 kts | 178° |
| 2026-05-05 23:13 | -33.06481 | -70.80347 | 6928 ft | 295 kts | 178° |
| 2026-05-05 23:13 | -33.08501 | -70.80238 | 6641 ft | 293 kts | 178° |
| 2026-05-05 23:14 | -33.10536 | -70.80128 | 6336 ft | 292 kts | 178° |
| 2026-05-05 23:14 | -33.12560 | -70.80020 | 6026 ft | 289 kts | 178° |
| 2026-05-05 23:14 | -33.14562 | -70.79911 | 5723 ft | 286 kts | 178° |
| 2026-05-05 23:14 | -33.16539 | -70.79804 | 5430 ft | 279 kts | 178° |
| 2026-05-05 23:15 | -33.18406 | -70.79704 | 5132 ft | 258 kts | 178° |
| 2026-05-05 23:15 | -33.20126 | -70.79611 | 4923 ft | 242 kts | 177° |
| 2026-05-05 23:15 | -33.21784 | -70.79522 | 4660 ft | 233 kts | 176° |
| 2026-05-05 23:15 | -33.23348 | -70.79435 | 4325 ft | 217 kts | 177° |
| 2026-05-05 23:16 | -33.24807 | -70.79357 | 4022 ft | 202 kts | 177° |
| 2026-05-05 23:16 | -33.26145 | -70.79285 | 3768 ft | 186 kts | 178° |
| 2026-05-05 23:16 | -33.27381 | -70.79218 | 3535 ft | 170 kts | 178° |
| 2026-05-05 23:16 | -33.28504 | -70.79157 | 3312 ft | 152 kts | 178° |
| 2026-05-05 23:17 | -33.29536 | -70.79099 | 3158 ft | 148 kts | 178° |
| 2026-05-05 23:17 | -33.30573 | -70.79045 | 2968 ft | 149 kts | 178° |
| 2026-05-05 23:17 | -33.31590 | -70.78992 | 2755 ft | 144 kts | 178° |
| 2026-05-05 23:17 | -33.32577 | -70.78937 | 2570 ft | 141 kts | 178° |
| 2026-05-05 23:18 | -33.33559 | -70.78884 | 2371 ft | 141 kts | 177° |
| 2026-05-05 23:18 | -33.34537 | -70.78831 | 2191 ft | 140 kts | 176° |
| 2026-05-05 23:18 | -33.35506 | -70.78781 | 1993 ft | 142 kts | 176° |
| 2026-05-05 23:18 | -33.36495 | -70.78732 | 1832 ft | 142 kts | 176° |
| 2026-05-05 23:19 | -33.37477 | -70.78681 | 1667 ft | 141 kts | 176° |
| 2026-05-05 23:19 | -33.38451 | -70.78628 | 1563 ft | 135 kts | 176° |
| 2026-05-05 23:19 | -33.39248 | -70.78584 | 1563 ft | 89 kts | 178° |
| 2026-05-05 23:19 | -33.39684 | -70.78561 | 1564 ft | 36 kts | 177° |
| 2026-05-05 23:20 | -33.39882 | -70.78550 | 1564 ft | 28 kts | 178° |
| 2026-05-05 23:20 | -33.40075 | -70.78539 | 1566 ft | 28 kts | 177° |
| 2026-05-05 23:20 | -33.40267 | -70.78529 | 1567 ft | 28 kts | 178° |
| 2026-05-05 23:20 | -33.40446 | -70.78530 | 1567 ft | 21 kts | 205° |
| 2026-05-05 23:21 | -33.40452 | -70.78676 | 1566 ft | 16 kts | 311° |
| 2026-05-05 23:21 | -33.40385 | -70.78736 | 1566 ft | 12 kts | 347° |
| 2026-05-05 23:21 | -33.40297 | -70.78743 | 1566 ft | 13 kts | 356° |
| 2026-05-05 23:21 | -33.40208 | -70.78748 | 1565 ft | 13 kts | 358° |
| 2026-05-05 23:22 | -33.40117 | -70.78753 | 1565 ft | 15 kts | 356° |
| 2026-05-05 23:22 | -33.39979 | -70.78760 | 1565 ft | 22 kts | 358° |
| 2026-05-05 23:22 | -33.39825 | -70.78767 | 1565 ft | 22 kts | 357° |
| 2026-05-05 23:22 | -33.39671 | -70.78777 | 1564 ft | 22 kts | 357° |
| 2026-05-05 23:23 | -33.39517 | -70.78784 | 1566 ft | 22 kts | 357° |
| 2026-05-05 23:23 | -33.39406 | -70.78810 | 1563 ft | 12 kts | 306° |
| 2026-05-05 23:23 | -33.39395 | -70.78910 | 1563 ft | 12 kts | 268° |
| 2026-05-05 23:23 | -33.39399 | -70.79013 | 1563 ft | 12 kts | 267° |
| 2026-05-05 23:24 | -33.39411 | -70.79112 | 1565 ft | 12 kts | 233° |
| 2026-05-05 23:24 | -33.39486 | -70.79158 | 1564 ft | 13 kts | 230° |
| 2026-05-05 23:24 | -33.39508 | -70.79239 | 1564 ft | 11 kts | 276° |
| 2026-05-05 23:24 | -33.39519 | -70.79292 | 1564 ft | 5 kts | 230° |
| 2026-05-05 23:25 | -33.39551 | -70.79296 | 1564 ft | 5 kts | 173° |
| 2026-05-05 23:25 | -33.39583 | -70.79293 | 1564 ft | 0 kts | 176° |